createdAt,value
2018-04-06T00:01:40.980Z,2.87
2018-04-06T00:04:06.891Z,2.30
2018-04-06T00:06:35.987Z,2.80
2018-04-06T00:09:01.939Z,2.00
2018-04-06T00:11:29.005Z,2.50
2018-04-06T00:13:54.932Z,3.10
2018-04-06T00:16:24.756Z,2.50
2018-04-06T00:18:50.681Z,2.67
2018-04-06T00:21:19.886Z,2.87
2018-04-06T00:23:45.786Z,3.40
2018-04-06T00:26:11.721Z,2.50
2018-04-06T00:28:37.697Z,2.70
2018-04-06T00:31:03.635Z,2.42
2018-04-06T00:33:30.382Z,2.70
2018-04-06T00:35:56.311Z,2.60
2018-04-06T00:38:24.893Z,2.93
2018-04-06T00:40:50.826Z,2.55
2018-04-06T00:43:20.480Z,2.50
2018-04-06T00:45:46.393Z,3.15
2018-04-06T00:48:15.696Z,2.60
2018-04-06T00:53:30.130Z,3.28
2018-04-06T00:55:56.051Z,2.78
2018-04-06T00:58:21.989Z,2.40
2018-04-06T01:00:47.901Z,2.80
2018-04-06T01:03:13.808Z,2.40
2018-04-06T01:05:39.708Z,2.47
2018-04-06T01:08:05.602Z,2.90
2018-04-06T01:10:31.509Z,2.50
2018-04-06T01:12:57.511Z,3.20
2018-04-06T01:15:23.426Z,3.05
2018-04-06T01:17:49.351Z,2.77
2018-04-06T01:20:15.267Z,3.40
2018-04-06T01:22:41.159Z,3.80
2018-04-06T01:25:07.060Z,3.37
2018-04-06T01:27:32.971Z,3.37
2018-04-06T01:29:58.889Z,3.90
2018-04-06T01:32:24.796Z,2.90
2018-04-06T01:34:50.734Z,3.23
2018-04-06T01:37:16.618Z,3.30
2018-04-06T01:39:42.615Z,2.53
2018-04-06T01:42:08.498Z,2.95
2018-04-06T01:44:34.418Z,3.17
2018-04-06T01:47:00.652Z,3.50
2018-04-06T01:49:26.602Z,3.15
2018-04-06T01:51:55.855Z,3.80
2018-04-06T01:54:21.786Z,3.75
2018-04-06T01:56:50.930Z,3.60
2018-04-06T01:59:16.919Z,3.42
2018-04-06T02:01:44.762Z,3.80
2018-04-06T02:04:10.690Z,4.03
2018-04-06T02:06:39.782Z,3.90
2018-04-06T02:09:05.722Z,3.70
2018-04-06T02:11:34.413Z,3.87
2018-04-06T02:14:00.345Z,3.67
2018-04-06T02:16:26.282Z,4.00
2018-04-06T02:18:52.371Z,3.43
2018-04-06T02:21:18.233Z,3.75
2018-04-06T02:23:46.347Z,4.93
2018-04-06T02:26:12.276Z,3.87
2018-04-06T02:28:42.217Z,3.70
2018-04-06T02:31:08.303Z,3.00
2018-04-06T02:33:35.359Z,4.07
2018-04-06T02:36:01.315Z,3.87
2018-04-06T02:38:31.202Z,3.63
2018-04-06T02:40:57.115Z,4.20
2018-04-06T02:43:24.650Z,3.63
2018-04-06T02:45:50.609Z,4.10
2018-04-06T02:48:19.347Z,4.73
2018-04-06T02:50:45.275Z,4.50
2018-04-06T02:53:11.194Z,4.50
2018-04-06T02:55:37.137Z,4.03
2018-04-06T02:58:03.075Z,4.37
2018-04-06T03:00:32.320Z,5.13
2018-04-06T03:02:58.205Z,4.45
2018-04-06T03:05:27.402Z,3.73
2018-04-06T03:07:53.322Z,4.15
2018-04-06T03:10:20.886Z,3.67
2018-04-06T03:12:46.881Z,4.80
2018-04-06T03:15:16.130Z,4.05
2018-04-06T03:17:42.058Z,4.45
2018-04-06T03:20:11.572Z,4.00
2018-04-06T03:22:37.445Z,4.03
2018-04-06T03:25:04.991Z,4.73
2018-04-06T03:27:30.912Z,4.68
2018-04-06T03:29:56.779Z,3.90
2018-04-06T03:32:22.698Z,5.00
2018-04-06T03:34:48.608Z,3.67
2018-04-06T03:37:18.138Z,4.40
2018-04-06T03:39:44.073Z,4.45
2018-04-06T03:42:11.889Z,4.37
2018-04-06T03:44:37.766Z,4.22
2018-04-06T03:47:07.688Z,4.80
2018-04-06T03:49:33.590Z,4.10
2018-04-06T03:52:00.705Z,4.30
2018-04-06T03:54:26.642Z,3.65
2018-04-06T03:56:56.171Z,4.57
2018-04-06T03:59:22.087Z,5.45
2018-04-06T04:01:50.434Z,4.37
2018-04-06T04:04:16.339Z,4.95
2018-04-06T04:06:42.264Z,3.80
2018-04-06T04:09:08.241Z,4.67
2018-04-06T04:11:34.211Z,4.75
2018-04-06T04:14:01.822Z,4.47
2018-04-06T04:16:27.779Z,4.43
2018-04-06T04:18:56.795Z,3.83
2018-04-06T04:21:22.701Z,4.30
2018-04-06T04:23:51.834Z,4.10
2018-04-06T04:26:17.728Z,4.40
2018-04-06T04:28:46.800Z,3.90
2018-04-06T04:31:12.702Z,4.53
2018-04-06T04:33:40.788Z,4.60
2018-04-06T04:36:06.713Z,5.22
2018-04-06T04:38:36.063Z,6.27
2018-04-06T04:41:02.046Z,5.45
2018-04-06T04:43:27.938Z,5.90
2018-04-06T04:45:53.777Z,4.50
2018-04-06T04:48:19.663Z,4.27
2018-04-06T04:50:47.196Z,4.90
2018-04-06T04:53:13.108Z,5.62
2018-04-06T04:55:41.518Z,4.90
2018-04-06T04:58:07.437Z,3.90
2018-04-06T05:00:36.610Z,4.50
2018-04-06T05:03:02.547Z,5.20
2018-04-06T05:05:32.109Z,4.50
2018-04-06T05:07:57.993Z,5.57
2018-04-06T05:10:27.580Z,5.00
2018-04-06T05:12:53.493Z,4.90
2018-04-06T05:15:20.814Z,4.77
2018-04-06T05:17:46.701Z,4.78
2018-04-06T05:20:12.599Z,4.97
2018-04-06T05:22:38.478Z,5.07
2018-04-06T05:25:04.387Z,5.67
2018-04-06T05:27:32.201Z,5.60
2018-04-06T05:29:58.103Z,5.15
2018-04-06T05:32:27.009Z,4.90
2018-04-06T05:34:52.843Z,5.25
2018-04-06T05:37:21.495Z,4.07
2018-04-06T05:39:47.353Z,5.28
2018-04-06T05:42:16.207Z,4.30
2018-04-06T05:44:42.100Z,5.47
2018-04-06T05:47:10.820Z,5.10
2018-04-06T05:49:36.757Z,5.37
2018-04-06T05:52:09.520Z,5.60
2018-04-06T05:54:35.416Z,6.10
2018-04-06T05:57:01.338Z,5.07
2018-04-06T05:59:27.269Z,5.10
2018-04-06T06:01:53.135Z,5.57
2018-04-06T06:04:18.993Z,5.13
2018-04-06T06:06:44.824Z,5.53
2018-04-06T06:09:14.119Z,5.23
2018-04-06T06:11:39.971Z,5.35
2018-04-06T06:14:07.637Z,5.30
2018-04-06T06:16:33.514Z,6.50
2018-04-06T06:19:01.728Z,5.50
2018-04-06T06:21:27.640Z,7.15
2018-04-06T06:23:56.451Z,6.93
2018-04-06T06:26:22.332Z,7.78
2018-04-06T06:28:51.147Z,8.30
2018-04-06T06:31:17.089Z,8.25
2018-04-06T06:33:42.934Z,7.13
2018-04-06T06:36:08.783Z,8.40
2018-04-06T06:38:34.852Z,8.67
2018-04-06T06:41:04.022Z,8.68
2018-04-06T06:43:29.936Z,10.27
2018-04-06T06:45:57.519Z,10.40
2018-04-06T06:48:23.446Z,11.38
2018-04-06T06:50:52.276Z,10.57
2018-04-06T06:53:18.130Z,9.65
2018-04-06T06:55:47.928Z,13.77
2018-04-06T06:58:13.826Z,10.95
2018-04-06T07:00:43.378Z,10.80
2018-04-06T07:03:09.875Z,11.52
2018-04-06T07:05:36.605Z,10.70
2018-04-06T07:08:02.488Z,11.63
2018-04-06T07:10:28.413Z,10.20
2018-04-06T07:12:54.299Z,11.60
2018-04-06T07:15:20.167Z,10.93
2018-04-06T07:17:49.358Z,10.20
2018-04-06T07:20:15.227Z,11.07
2018-04-06T07:22:44.637Z,12.17
2018-04-06T07:25:10.473Z,10.45
2018-04-06T07:27:38.108Z,12.10
2018-04-06T07:30:04.000Z,11.48
2018-04-06T07:32:33.739Z,12.00
2018-04-06T07:34:59.638Z,11.90
2018-04-06T07:37:28.929Z,12.90
2018-04-06T07:39:54.844Z,12.35
2018-04-06T07:42:22.008Z,13.10
2018-04-06T07:44:47.923Z,11.98
2018-04-06T07:47:13.792Z,12.30
2018-04-06T07:49:39.667Z,12.03
2018-04-06T07:52:05.619Z,12.73
2018-04-06T07:54:34.985Z,11.93
2018-04-06T07:57:00.863Z,12.10
2018-04-06T07:59:29.970Z,11.40
2018-04-06T08:01:55.925Z,11.95
2018-04-06T08:04:22.965Z,11.80
2018-04-06T08:06:48.855Z,10.73
2018-04-06T08:09:19.764Z,11.57
2018-04-06T08:11:47.206Z,12.50
2018-04-06T08:14:13.840Z,10.85
2018-04-06T08:16:39.739Z,12.52
2018-04-06T08:19:07.212Z,11.03
2018-04-06T08:21:33.095Z,11.93
2018-04-06T08:23:59.129Z,11.33
2018-04-06T08:26:25.070Z,11.77
2018-04-06T08:28:50.936Z,35.10
2018-04-06T08:31:20.240Z,12.07
2018-04-06T08:33:46.113Z,12.32
2018-04-06T08:36:13.336Z,12.20
2018-04-06T08:38:39.180Z,12.18
2018-04-06T08:41:08.292Z,11.63
2018-04-06T08:43:34.168Z,10.75
2018-04-06T08:46:03.904Z,10.73
2018-04-06T08:48:29.816Z,10.48
2018-04-06T08:50:58.079Z,10.30
2018-04-06T08:53:23.963Z,10.98
2018-04-06T08:55:52.632Z,11.20
2018-04-06T08:58:18.521Z,9.63
2018-04-06T09:00:44.459Z,9.63
2018-04-06T09:03:10.364Z,10.13
2018-04-06T09:05:36.299Z,9.80
2018-04-06T09:08:05.181Z,9.43
2018-04-06T09:10:31.064Z,9.25
2018-04-06T09:12:58.951Z,9.00
2018-04-06T09:15:24.896Z,8.68
2018-04-06T09:17:54.313Z,9.90
2018-04-06T09:20:20.154Z,8.70
2018-04-06T09:22:49.214Z,8.90
2018-04-06T09:25:15.178Z,8.85
2018-04-06T09:27:44.571Z,8.57
2018-04-06T09:30:10.446Z,8.23
2018-04-06T09:32:39.460Z,8.40
2018-04-06T09:35:05.295Z,7.90
2018-04-06T09:37:31.175Z,7.40
2018-04-06T09:39:57.080Z,8.73
2018-04-06T09:42:22.986Z,8.67
2018-04-06T09:44:50.129Z,8.20
2018-04-06T09:47:16.028Z,7.25
2018-04-06T09:49:44.290Z,7.97
2018-04-06T09:52:10.244Z,7.50
2018-04-06T09:54:39.173Z,7.97
2018-04-06T09:57:05.075Z,7.32
2018-04-06T09:59:34.795Z,7.00
2018-04-06T10:02:06.698Z,6.50
2018-04-06T10:04:33.423Z,7.18
2018-04-06T10:06:59.346Z,6.90
2018-04-06T10:09:25.346Z,7.50
2018-04-06T10:11:51.266Z,6.15
2018-04-06T10:14:17.192Z,5.80
2018-04-06T10:16:43.102Z,6.60
2018-04-06T10:19:09.041Z,6.87
2018-04-06T10:21:34.957Z,6.97
2018-04-06T10:24:00.861Z,5.03
2018-04-06T10:26:29.772Z,5.60
2018-04-06T10:28:55.649Z,5.80
2018-04-06T10:31:25.047Z,6.60
2018-04-06T10:33:50.932Z,7.15
2018-04-06T10:36:18.767Z,6.10
2018-04-06T10:38:44.711Z,6.37
2018-04-06T10:41:14.283Z,5.80
2018-04-06T10:43:40.218Z,6.67
2018-04-06T10:46:09.230Z,7.00
2018-04-06T10:48:35.110Z,5.00
2018-04-06T10:51:01.050Z,5.70
2018-04-06T10:53:26.919Z,5.93
2018-04-06T10:55:52.851Z,5.33
2018-04-06T10:58:20.310Z,5.73
2018-04-06T11:00:46.222Z,5.20
2018-04-06T11:03:15.800Z,5.90
2018-04-06T11:05:41.687Z,4.77
2018-04-06T11:08:11.105Z,4.97
2018-04-06T11:10:37.029Z,5.37
2018-04-06T11:13:04.633Z,6.00
2018-04-06T11:15:30.576Z,5.97
2018-04-06T11:17:58.725Z,5.00
2018-04-06T11:20:24.703Z,4.57
2018-04-06T11:22:53.428Z,4.60
2018-04-06T11:25:19.338Z,4.70
2018-04-06T11:27:45.262Z,4.73
2018-04-06T11:30:11.255Z,5.43
2018-04-06T11:32:37.166Z,4.43
2018-04-06T11:35:05.325Z,4.47
2018-04-06T11:37:31.284Z,4.60
2018-04-06T11:40:00.934Z,5.10
2018-04-06T11:42:26.790Z,5.10
2018-04-06T11:44:54.595Z,5.80
2018-04-06T11:47:20.507Z,5.30
2018-04-06T11:49:49.285Z,6.07
2018-04-06T11:52:15.230Z,4.87
2018-04-06T11:54:44.206Z,5.37
2018-04-06T11:57:10.102Z,5.20
2018-04-06T11:59:39.631Z,5.07
2018-04-06T12:02:05.554Z,5.33
2018-04-06T12:04:31.486Z,4.67
2018-04-06T12:06:57.410Z,5.50
2018-04-06T12:09:23.348Z,6.07
2018-04-06T12:11:50.695Z,5.00
2018-04-06T12:14:16.615Z,5.53
2018-04-06T12:16:45.915Z,5.93
2018-04-06T12:19:11.841Z,4.77
2018-04-06T12:21:41.031Z,4.63
2018-04-06T12:24:06.950Z,4.23
2018-04-06T12:26:36.628Z,4.93
2018-04-06T12:29:02.595Z,4.40
2018-04-06T12:31:29.910Z,4.40
2018-04-06T12:33:55.904Z,5.07
2018-04-06T12:36:25.685Z,4.67
2018-04-06T12:38:51.650Z,4.67
2018-04-06T12:41:17.553Z,5.50
2018-04-06T12:43:43.487Z,4.90
2018-04-06T12:46:09.374Z,4.57
2018-04-06T12:48:36.101Z,5.67
2018-04-06T12:51:01.995Z,5.20
2018-04-06T12:53:31.410Z,5.53
2018-04-06T12:55:57.469Z,6.37
2018-04-06T12:58:25.148Z,5.53
2018-04-06T13:00:51.090Z,6.60
2018-04-06T13:03:19.922Z,5.20
2018-04-06T13:05:45.831Z,5.90
2018-04-06T13:08:14.847Z,5.73
2018-04-06T13:10:40.763Z,4.53
2018-04-06T13:13:10.527Z,5.27
2018-04-06T13:15:36.420Z,4.33
2018-04-06T13:18:02.381Z,5.80
2018-04-06T13:20:28.319Z,6.00
2018-04-06T13:22:54.202Z,5.20
2018-04-06T13:25:21.078Z,6.73
2018-04-06T13:27:47.026Z,5.97
2018-04-06T13:30:16.218Z,6.00
2018-04-06T13:32:42.111Z,6.07
2018-04-06T13:35:11.605Z,6.70
2018-04-06T13:37:37.515Z,4.73
2018-04-06T13:40:07.222Z,6.57
2018-04-06T13:42:33.131Z,5.70
2018-04-06T13:45:00.470Z,5.33
2018-04-06T13:47:26.394Z,4.93
2018-04-06T13:49:55.901Z,6.27
2018-04-06T13:52:21.850Z,5.43
2018-04-06T13:54:47.750Z,5.40
2018-04-06T13:57:13.678Z,6.13
2018-04-06T13:59:39.542Z,6.83
2018-04-06T14:02:07.294Z,7.50
2018-04-06T14:04:33.189Z,5.73
2018-04-06T14:07:01.426Z,5.80
2018-04-06T14:09:27.344Z,6.20
2018-04-06T14:11:57.046Z,6.13
2018-04-06T14:14:22.958Z,6.43
2018-04-06T14:16:50.938Z,6.00
2018-04-06T14:19:16.881Z,6.23
2018-04-06T14:21:46.127Z,5.63
2018-04-06T14:24:12.097Z,6.63
2018-04-06T14:26:41.227Z,5.83
2018-04-06T14:29:07.144Z,5.90
2018-04-06T14:31:33.069Z,6.40
2018-04-06T14:33:59.077Z,5.50
2018-04-06T14:36:24.976Z,6.57
2018-04-06T14:38:51.991Z,5.87
2018-04-06T14:41:17.935Z,6.40
2018-04-06T14:43:47.188Z,6.00
2018-04-06T14:46:13.142Z,7.00
2018-04-06T14:48:42.305Z,7.33
2018-04-06T14:51:08.254Z,6.50
2018-04-06T14:53:38.246Z,6.90
2018-04-06T14:56:04.169Z,6.60
2018-04-06T14:58:30.595Z,5.03
2018-04-06T15:00:56.534Z,7.23
2018-04-06T15:03:25.387Z,6.63
2018-04-06T15:05:51.310Z,7.00
2018-04-06T15:08:18.947Z,7.73
2018-04-06T15:10:45.019Z,7.57
2018-04-06T15:13:10.950Z,6.43
2018-04-06T15:15:36.973Z,7.03
2018-04-06T15:18:03.557Z,8.10
2018-04-06T15:20:33.479Z,6.10
2018-04-06T15:22:59.401Z,9.40
2018-04-06T15:25:26.838Z,6.43
2018-04-06T15:27:52.756Z,6.63
2018-04-06T15:30:22.089Z,7.60
2018-04-06T15:32:47.990Z,7.50
2018-04-06T15:35:17.385Z,7.87
2018-04-06T15:37:43.278Z,8.53
2018-04-06T15:40:12.277Z,7.70
2018-04-06T15:42:38.180Z,7.40
2018-04-06T15:45:04.106Z,7.47
2018-04-06T15:47:30.022Z,7.10
2018-04-06T15:49:55.921Z,7.40
2018-04-06T15:52:22.674Z,7.43
2018-04-06T15:54:48.571Z,7.33
2018-04-06T15:57:17.754Z,7.40
2018-04-06T15:59:43.666Z,6.70
2018-04-06T16:02:12.824Z,6.80
2018-04-06T16:04:38.724Z,7.00
2018-04-06T16:07:06.598Z,7.70
2018-04-06T16:09:32.557Z,7.80
2018-04-06T16:12:01.934Z,7.00
2018-04-06T16:14:27.879Z,6.70
2018-04-06T16:16:57.441Z,6.23
2018-04-06T16:19:23.405Z,6.77
2018-04-06T16:21:49.318Z,6.13
2018-04-06T16:24:15.262Z,6.63
2018-04-06T16:26:41.190Z,7.17
2018-04-06T16:29:08.416Z,6.50
2018-04-06T16:31:34.341Z,5.90
2018-04-06T16:34:03.594Z,7.13
2018-04-06T16:36:29.550Z,6.97
2018-04-06T16:38:58.634Z,5.73
2018-04-06T16:41:24.558Z,6.10
2018-04-06T16:43:51.978Z,6.40
2018-04-06T16:46:17.901Z,6.53
2018-04-06T16:48:46.715Z,6.10
2018-04-06T16:51:12.625Z,6.70
2018-04-06T16:53:41.866Z,6.00
2018-04-06T16:56:07.808Z,7.17
2018-04-06T16:58:33.714Z,7.97
2018-04-06T17:00:59.672Z,7.53
2018-04-06T17:03:25.536Z,6.27
2018-04-06T17:05:52.886Z,5.83
2018-04-06T17:08:18.775Z,6.40
2018-04-06T17:10:47.874Z,6.33
2018-04-06T17:13:13.816Z,5.33
2018-04-06T17:15:43.137Z,5.23
2018-04-06T17:18:09.113Z,5.97
2018-04-06T17:20:38.193Z,5.80
2018-04-06T17:23:04.074Z,6.30
2018-04-06T17:25:31.958Z,6.30
2018-04-06T17:27:57.863Z,6.07
2018-04-06T17:30:27.303Z,6.37
2018-04-06T17:32:53.185Z,6.20
2018-04-06T17:35:19.088Z,6.47
2018-04-06T17:37:44.971Z,8.57
2018-04-06T17:40:10.856Z,6.30
2018-04-06T17:42:38.804Z,6.27
2018-04-06T17:45:04.712Z,5.07
2018-04-06T17:47:34.549Z,5.57
2018-04-06T17:50:00.460Z,6.60
2018-04-06T17:52:29.432Z,6.60
2018-04-06T17:54:55.343Z,6.40
2018-04-06T17:57:22.196Z,7.20
2018-04-06T17:59:48.027Z,5.37
2018-04-06T18:02:16.739Z,5.83
2018-04-06T18:04:42.655Z,6.80
2018-04-06T18:07:11.419Z,6.80
2018-04-06T18:09:37.426Z,6.13
2018-04-06T18:12:03.341Z,6.80
2018-04-06T18:14:29.291Z,6.10
2018-04-06T18:16:55.190Z,7.10
2018-04-06T18:19:23.463Z,6.70
2018-04-06T18:21:49.362Z,7.67
2018-04-06T18:24:18.237Z,7.20
2018-04-06T18:26:44.119Z,7.10
2018-04-06T18:29:13.044Z,6.40
2018-04-06T18:31:38.967Z,7.20
2018-04-06T18:34:08.214Z,7.07
2018-04-06T18:36:34.218Z,7.40
2018-04-06T18:39:03.468Z,7.37
2018-04-06T18:41:29.399Z,7.22
2018-04-06T18:43:57.501Z,6.70
2018-04-06T18:46:23.406Z,6.22
2018-04-06T18:48:49.323Z,7.73
2018-04-06T18:51:15.222Z,8.23
2018-04-06T18:53:41.154Z,6.50
2018-04-06T18:56:10.334Z,6.30
2018-04-06T18:58:36.249Z,6.60
2018-04-06T19:01:03.658Z,6.30
2018-04-06T19:03:29.589Z,7.20
2018-04-06T19:05:59.346Z,6.30
2018-04-06T19:08:25.328Z,7.40
2018-04-06T19:10:53.265Z,7.07
2018-04-06T19:13:19.191Z,6.03
2018-04-06T19:15:48.150Z,7.03
2018-04-06T19:18:14.092Z,6.40
2018-04-06T19:20:42.901Z,6.40
2018-04-06T19:23:08.862Z,6.90
2018-04-06T19:25:34.815Z,6.20
2018-04-06T19:28:00.747Z,6.30
2018-04-06T19:30:26.682Z,5.63
2018-04-06T19:32:55.668Z,6.47
2018-04-06T19:35:21.578Z,6.53
2018-04-06T19:37:48.831Z,6.50
2018-04-06T19:40:14.806Z,5.62
2018-04-06T19:42:43.810Z,6.43
2018-04-06T19:45:09.772Z,6.30
2018-04-06T19:47:39.038Z,7.13
2018-04-06T19:50:04.973Z,6.50
2018-04-06T19:52:34.103Z,6.60
2018-04-06T19:55:00.099Z,7.30
2018-04-06T19:57:29.549Z,7.60
2018-04-06T19:59:55.478Z,6.20
2018-04-06T20:02:21.428Z,6.10
2018-04-06T20:04:47.337Z,6.70
2018-04-06T20:07:13.235Z,7.40
2018-04-06T20:09:40.017Z,7.80
2018-04-06T20:12:05.938Z,6.90
2018-04-06T20:14:35.022Z,6.47
2018-04-06T20:17:00.946Z,7.03
2018-04-06T20:19:30.314Z,7.10
2018-04-06T20:21:56.281Z,6.20
2018-04-06T20:24:24.148Z,6.47
2018-04-06T20:26:50.055Z,5.93
2018-04-06T20:29:19.778Z,6.40
2018-04-06T20:31:45.678Z,6.90
2018-04-06T20:34:14.642Z,6.50
2018-04-06T20:36:40.547Z,6.80
2018-04-06T20:39:06.742Z,6.00
2018-04-06T20:41:32.693Z,7.18
2018-04-06T20:43:58.604Z,6.60
2018-04-06T20:46:24.616Z,6.30
2018-04-06T20:48:50.522Z,6.90
2018-04-06T20:51:19.776Z,6.90
2018-04-06T20:56:37.627Z,6.55
2018-04-06T20:59:03.573Z,7.83
2018-04-06T21:01:29.470Z,7.43
2018-04-06T21:03:55.359Z,7.70
2018-04-06T21:06:21.266Z,7.40
2018-04-06T21:08:47.333Z,7.10
2018-04-06T21:11:13.228Z,7.47
2018-04-06T21:13:39.171Z,8.20
2018-04-06T21:16:05.354Z,7.87
2018-04-06T21:18:31.259Z,7.37
2018-04-06T21:20:57.284Z,7.70
2018-04-06T21:23:23.202Z,7.72
2018-04-06T21:25:49.142Z,8.87
2018-04-06T21:28:15.095Z,7.77
2018-04-06T21:30:41.032Z,8.00
2018-04-06T21:33:06.930Z,9.17
2018-04-06T21:35:32.860Z,9.07
2018-04-06T21:37:58.787Z,7.67
2018-04-06T21:40:24.692Z,8.00
2018-04-06T21:42:50.605Z,8.40
2018-04-06T21:45:16.550Z,7.57
2018-04-06T21:47:44.223Z,8.40
2018-04-06T21:50:10.178Z,8.20
2018-04-06T21:52:36.092Z,8.60
2018-04-06T21:55:02.074Z,7.87
2018-04-06T21:57:28.001Z,8.37
2018-04-06T21:59:56.931Z,7.30
2018-04-06T22:02:22.867Z,8.88
2018-04-06T22:04:50.394Z,7.70
2018-04-06T22:07:16.275Z,7.82
2018-04-06T22:09:45.615Z,7.97
2018-04-06T22:12:11.533Z,7.65
2018-04-06T22:14:42.560Z,8.50
2018-04-06T22:17:08.530Z,8.45
2018-04-06T22:19:34.441Z,7.50
2018-04-06T22:22:00.375Z,8.07
2018-04-06T22:24:29.288Z,8.27
2018-04-06T22:26:55.209Z,8.52
2018-04-06T22:29:21.142Z,7.63
2018-04-06T22:31:47.075Z,6.73
2018-04-06T22:34:13.013Z,7.60
2018-04-06T22:36:40.726Z,9.03
2018-04-06T22:39:06.618Z,8.90
2018-04-06T22:41:35.706Z,7.73
2018-04-06T22:44:01.624Z,7.53
2018-04-06T22:46:30.918Z,8.70
2018-04-06T22:48:56.805Z,8.77
2018-04-06T22:51:26.295Z,7.27
2018-04-06T22:53:52.174Z,9.48
2018-04-06T22:56:19.559Z,7.83
2018-04-06T22:58:45.518Z,8.02
2018-04-06T23:01:14.803Z,8.70
2018-04-06T23:03:40.703Z,7.80
2018-04-06T23:06:06.671Z,8.20
2018-04-06T23:08:32.551Z,7.77
2018-04-06T23:10:58.450Z,9.50
2018-04-06T23:13:26.121Z,9.00
2018-04-06T23:15:52.068Z,8.88
2018-04-06T23:18:21.590Z,8.93
2018-04-06T23:20:47.513Z,9.10
2018-04-06T23:23:17.086Z,8.50
2018-04-06T23:25:42.988Z,8.48
2018-04-06T23:28:10.760Z,8.80
2018-04-06T23:30:36.662Z,8.32
2018-04-06T23:33:06.544Z,7.97
2018-04-06T23:35:32.470Z,8.23
2018-04-06T23:37:59.989Z,8.70
2018-04-06T23:40:25.878Z,7.60
2018-04-06T23:42:51.782Z,8.30
2018-04-06T23:45:17.700Z,8.40
2018-04-06T23:47:43.704Z,8.50
2018-04-06T23:50:12.781Z,10.25
2018-04-06T23:52:38.711Z,8.73
2018-04-06T23:55:06.117Z,9.20
2018-04-06T23:57:32.041Z,8.32
